sensor_id;sensor_type;location;lat;lon;timestamp;temperature;humidity
54126;DHT22;40360;52.992;6.796;2023-05-18T00:02:04;9.00;99.90
54126;DHT22;40360;52.992;6.796;2023-05-18T00:04:31;9.00;99.90
54126;DHT22;40360;52.992;6.796;2023-05-18T00:06:59;9.00;99.90
54126;DHT22;40360;52.992;6.796;2023-05-18T00:09:30;8.90;99.90
54126;DHT22;40360;52.992;6.796;2023-05-18T00:11:57;8.70;99.90
54126;DHT22;40360;52.992;6.796;2023-05-18T00:14:22;8.90;99.90
54126;DHT22;40360;52.992;6.796;2023-05-18T00:16:48;8.90;99.90
54126;DHT22;40360;52.992;6.796;2023-05-18T00:19:14;8.90;99.90
54126;DHT22;40360;52.992;6.796;2023-05-18T00:21:44;8.90;99.90
54126;DHT22;40360;52.992;6.796;2023-05-18T00:24:13;8.90;99.90
54126;DHT22;40360;52.992;6.796;2023-05-18T00:26:41;8.90;99.90
54126;DHT22;40360;52.992;6.796;2023-05-18T00:29:07;8.90;99.90
54126;DHT22;40360;52.992;6.796;2023-05-18T00:31:33;8.90;99.90
54126;DHT22;40360;52.992;6.796;2023-05-18T00:34:10;8.90;99.90
54126;DHT22;40360;52.992;6.796;2023-05-18T00:36:36;8.80;99.90
54126;DHT22;40360;52.992;6.796;2023-05-18T00:39:03;8.80;99.90
54126;DHT22;40360;52.992;6.796;2023-05-18T00:41:30;8.80;99.90
54126;DHT22;40360;52.992;6.796;2023-05-18T00:43:56;8.80;99.90
54126;DHT22;40360;52.992;6.796;2023-05-18T00:46:23;8.80;99.90
54126;DHT22;40360;52.992;6.796;2023-05-18T00:48:50;8.70;99.90
54126;DHT22;40360;52.992;6.796;2023-05-18T00:51:17;8.70;99.90
54126;DHT22;40360;52.992;6.796;2023-05-18T00:53:44;8.70;99.90
54126;DHT22;40360;52.992;6.796;2023-05-18T00:56:11;8.70;99.90
54126;DHT22;40360;52.992;6.796;2023-05-18T00:58:40;8.60;99.90
54126;DHT22;40360;52.992;6.796;2023-05-18T01:01:07;8.60;99.90
54126;DHT22;40360;52.992;6.796;2023-05-18T01:03:34;8.60;99.90
54126;DHT22;40360;52.992;6.796;2023-05-18T01:06:03;8.70;99.90
54126;DHT22;40360;52.992;6.796;2023-05-18T01:08:31;8.60;99.90
54126;DHT22;40360;52.992;6.796;2023-05-18T01:16:40;8.60;99.90
54126;DHT22;40360;52.992;6.796;2023-05-18T01:22:29;8.60;99.90
54126;DHT22;40360;52.992;6.796;2023-05-18T01:25:11;8.60;99.90
54126;DHT22;40360;52.992;6.796;2023-05-18T01:27:44;8.60;99.90
54126;DHT22;40360;52.992;6.796;2023-05-18T01:30:14;8.60;99.90
54126;DHT22;40360;52.992;6.796;2023-05-18T01:32:40;8.50;99.90
54126;DHT22;40360;52.992;6.796;2023-05-18T01:35:07;8.50;99.90
54126;DHT22;40360;52.992;6.796;2023-05-18T01:37:33;8.50;99.90
54126;DHT22;40360;52.992;6.796;2023-05-18T01:39:59;8.50;99.90
54126;DHT22;40360;52.992;6.796;2023-05-18T01:42:27;8.60;99.90
54126;DHT22;40360;52.992;6.796;2023-05-18T01:44:57;8.50;99.90
54126;DHT22;40360;52.992;6.796;2023-05-18T01:47:27;8.60;99.90
54126;DHT22;40360;52.992;6.796;2023-05-18T01:52:53;8.50;99.90
54126;DHT22;40360;52.992;6.796;2023-05-18T01:55:22;8.50;99.90
54126;DHT22;40360;52.992;6.796;2023-05-18T01:57:50;8.50;99.90
54126;DHT22;40360;52.992;6.796;2023-05-18T02:00:17;8.50;99.90
54126;DHT22;40360;52.992;6.796;2023-05-18T02:02:44;8.50;99.90
54126;DHT22;40360;52.992;6.796;2023-05-18T02:05:09;8.50;99.90
54126;DHT22;40360;52.992;6.796;2023-05-18T02:07:38;8.50;99.90
54126;DHT22;40360;52.992;6.796;2023-05-18T02:10:05;8.40;99.90
54126;DHT22;40360;52.992;6.796;2023-05-18T02:12:31;8.40;99.90
54126;DHT22;40360;52.992;6.796;2023-05-18T02:14:57;8.40;99.90
54126;DHT22;40360;52.992;6.796;2023-05-18T02:17:25;8.40;99.90
54126;DHT22;40360;52.992;6.796;2023-05-18T02:19:51;8.40;99.90
54126;DHT22;40360;52.992;6.796;2023-05-18T02:22:17;8.40;99.90
54126;DHT22;40360;52.992;6.796;2023-05-18T02:24:42;8.40;99.90
54126;DHT22;40360;52.992;6.796;2023-05-18T02:27:10;8.40;99.90
54126;DHT22;40360;52.992;6.796;2023-05-18T02:29:36;8.40;99.90
54126;DHT22;40360;52.992;6.796;2023-05-18T02:32:02;8.40;99.90
54126;DHT22;40360;52.992;6.796;2023-05-18T02:34:28;8.40;99.90
54126;DHT22;40360;52.992;6.796;2023-05-18T02:36:57;8.40;99.90
54126;DHT22;40360;52.992;6.796;2023-05-18T02:39:28;8.40;99.90
54126;DHT22;40360;52.992;6.796;2023-05-18T02:41:54;8.40;99.90
54126;DHT22;40360;52.992;6.796;2023-05-18T02:44:20;8.30;99.90
54126;DHT22;40360;52.992;6.796;2023-05-18T02:46:46;8.30;99.90
54126;DHT22;40360;52.992;6.796;2023-05-18T02:49:11;8.30;99.90
54126;DHT22;40360;52.992;6.796;2023-05-18T02:51:37;8.30;99.90
54126;DHT22;40360;52.992;6.796;2023-05-18T02:54:02;8.40;99.90
54126;DHT22;40360;52.992;6.796;2023-05-18T02:56:28;8.30;99.90
54126;DHT22;40360;52.992;6.796;2023-05-18T02:58:54;8.30;99.90
54126;DHT22;40360;52.992;6.796;2023-05-18T03:01:23;8.30;99.90
54126;DHT22;40360;52.992;6.796;2023-05-18T03:03:55;8.30;99.90
54126;DHT22;40360;52.992;6.796;2023-05-18T03:06:23;8.30;99.90
54126;DHT22;40360;52.992;6.796;2023-05-18T03:08:51;8.30;99.90
54126;DHT22;40360;52.992;6.796;2023-05-18T03:11:19;8.30;99.90
54126;DHT22;40360;52.992;6.796;2023-05-18T03:13:46;8.30;99.90
54126;DHT22;40360;52.992;6.796;2023-05-18T03:16:12;8.30;99.90
54126;DHT22;40360;52.992;6.796;2023-05-18T03:18:38;8.30;99.90
54126;DHT22;40360;52.992;6.796;2023-05-18T03:21:04;8.30;99.90
54126;DHT22;40360;52.992;6.796;2023-05-18T03:23:30;8.30;99.90
54126;DHT22;40360;52.992;6.796;2023-05-18T03:25:55;8.20;99.90
54126;DHT22;40360;52.992;6.796;2023-05-18T03:28:21;8.30;99.90
54126;DHT22;40360;52.992;6.796;2023-05-18T03:30:47;8.20;99.90
54126;DHT22;40360;52.992;6.796;2023-05-18T03:33:13;8.20;99.90
54126;DHT22;40360;52.992;6.796;2023-05-18T03:35:39;8.20;99.90
54126;DHT22;40360;52.992;6.796;2023-05-18T03:38:06;8.20;99.90
54126;DHT22;40360;52.992;6.796;2023-05-18T03:40:32;8.20;99.90
54126;DHT22;40360;52.992;6.796;2023-05-18T03:42:57;8.30;99.90
54126;DHT22;40360;52.992;6.796;2023-05-18T03:45:23;8.30;99.90
54126;DHT22;40360;52.992;6.796;2023-05-18T03:47:49;8.30;99.90
54126;DHT22;40360;52.992;6.796;2023-05-18T03:50:18;8.30;99.90
54126;DHT22;40360;52.992;6.796;2023-05-18T03:52:44;8.30;99.90
54126;DHT22;40360;52.992;6.796;2023-05-18T03:55:10;8.30;99.90
54126;DHT22;40360;52.992;6.796;2023-05-18T03:57:36;8.30;99.90
54126;DHT22;40360;52.992;6.796;2023-05-18T04:00:04;8.30;99.90
54126;DHT22;40360;52.992;6.796;2023-05-18T04:02:32;8.30;99.90
54126;DHT22;40360;52.992;6.796;2023-05-18T04:04:57;8.40;99.90
54126;DHT22;40360;52.992;6.796;2023-05-18T04:07:23;8.40;99.90
54126;DHT22;40360;52.992;6.796;2023-05-18T04:09:53;8.40;99.90
54126;DHT22;40360;52.992;6.796;2023-05-18T04:12:19;8.40;99.90
54126;DHT22;40360;52.992;6.796;2023-05-18T04:14:45;8.40;99.90
54126;DHT22;40360;52.992;6.796;2023-05-18T04:17:19;8.40;99.90
54126;DHT22;40360;52.992;6.796;2023-05-18T04:19:47;8.40;99.90
54126;DHT22;40360;52.992;6.796;2023-05-18T04:22:13;8.40;99.90
54126;DHT22;40360;52.992;6.796;2023-05-18T04:24:41;8.40;99.90
54126;DHT22;40360;52.992;6.796;2023-05-18T04:27:07;8.40;99.90
54126;DHT22;40360;52.992;6.796;2023-05-18T04:29:33;8.40;99.90
54126;DHT22;40360;52.992;6.796;2023-05-18T04:32:07;8.50;99.90
54126;DHT22;40360;52.992;6.796;2023-05-18T04:34:33;8.50;99.90
54126;DHT22;40360;52.992;6.796;2023-05-18T04:37:00;8.60;99.90
54126;DHT22;40360;52.992;6.796;2023-05-18T04:39:27;8.60;99.90
54126;DHT22;40360;52.992;6.796;2023-05-18T04:41:53;8.60;99.90
54126;DHT22;40360;52.992;6.796;2023-05-18T04:44:26;8.60;99.90
54126;DHT22;40360;52.992;6.796;2023-05-18T04:46:55;8.60;99.90
54126;DHT22;40360;52.992;6.796;2023-05-18T04:49:22;8.70;99.90
54126;DHT22;40360;52.992;6.796;2023-05-18T04:51:52;8.70;99.90
54126;DHT22;40360;52.992;6.796;2023-05-18T04:54:29;8.80;99.90
54126;DHT22;40360;52.992;6.796;2023-05-18T04:56:55;8.80;99.90
54126;DHT22;40360;52.992;6.796;2023-05-18T04:59:22;8.90;99.90
54126;DHT22;40360;52.992;6.796;2023-05-18T05:01:54;8.90;99.90
54126;DHT22;40360;52.992;6.796;2023-05-18T05:04:20;8.90;99.90
54126;DHT22;40360;52.992;6.796;2023-05-18T05:06:46;9.00;99.90
54126;DHT22;40360;52.992;6.796;2023-05-18T05:09:12;9.00;99.90
54126;DHT22;40360;52.992;6.796;2023-05-18T05:11:39;8.90;99.90
54126;DHT22;40360;52.992;6.796;2023-05-18T05:14:05;9.10;99.90
54126;DHT22;40360;52.992;6.796;2023-05-18T05:16:31;9.10;99.90
54126;DHT22;40360;52.992;6.796;2023-05-18T05:18:57;9.20;99.90
54126;DHT22;40360;52.992;6.796;2023-05-18T05:21:22;9.20;99.90
54126;DHT22;40360;52.992;6.796;2023-05-18T05:23:48;9.20;99.90
54126;DHT22;40360;52.992;6.796;2023-05-18T05:26:13;9.30;99.90
54126;DHT22;40360;52.992;6.796;2023-05-18T05:28:39;9.30;99.90
54126;DHT22;40360;52.992;6.796;2023-05-18T05:31:05;9.30;99.90
54126;DHT22;40360;52.992;6.796;2023-05-18T05:33:32;9.30;99.90
54126;DHT22;40360;52.992;6.796;2023-05-18T05:35:58;9.30;99.90
54126;DHT22;40360;52.992;6.796;2023-05-18T05:38:23;9.40;99.90
54126;DHT22;40360;52.992;6.796;2023-05-18T05:40:49;9.40;99.90
54126;DHT22;40360;52.992;6.796;2023-05-18T05:43:14;9.40;99.90
54126;DHT22;40360;52.992;6.796;2023-05-18T06:01:13;9.70;99.90
54126;DHT22;40360;52.992;6.796;2023-05-18T06:03:39;9.80;99.90
54126;DHT22;40360;52.992;6.796;2023-05-18T06:06:05;9.80;99.90
54126;DHT22;40360;52.992;6.796;2023-05-18T06:08:30;9.80;99.90
54126;DHT22;40360;52.992;6.796;2023-05-18T06:10:56;9.80;99.90
54126;DHT22;40360;52.992;6.796;2023-05-18T06:13:22;9.90;99.90
54126;DHT22;40360;52.992;6.796;2023-05-18T06:15:48;9.90;99.90
54126;DHT22;40360;52.992;6.796;2023-05-18T06:18:13;9.90;99.90
54126;DHT22;40360;52.992;6.796;2023-05-18T06:20:39;10.00;99.90
54126;DHT22;40360;52.992;6.796;2023-05-18T06:23:04;10.00;99.90
54126;DHT22;40360;52.992;6.796;2023-05-18T06:25:30;10.00;99.90
54126;DHT22;40360;52.992;6.796;2023-05-18T06:27:56;10.10;99.90
54126;DHT22;40360;52.992;6.796;2023-05-18T06:30:21;10.20;99.90
54126;DHT22;40360;52.992;6.796;2023-05-18T06:32:47;10.20;99.90
54126;DHT22;40360;52.992;6.796;2023-05-18T06:35:13;10.30;99.90
54126;DHT22;40360;52.992;6.796;2023-05-18T06:37:38;10.30;99.90
54126;DHT22;40360;52.992;6.796;2023-05-18T06:40:05;10.30;99.90
54126;DHT22;40360;52.992;6.796;2023-05-18T06:42:32;10.40;99.90
54126;DHT22;40360;52.992;6.796;2023-05-18T06:44:58;10.50;99.90
54126;DHT22;40360;52.992;6.796;2023-05-18T06:47:23;10.60;99.90
54126;DHT22;40360;52.992;6.796;2023-05-18T06:49:49;10.50;99.90
54126;DHT22;40360;52.992;6.796;2023-05-18T06:52:15;10.60;99.90
54126;DHT22;40360;52.992;6.796;2023-05-18T06:54:41;10.60;99.90
54126;DHT22;40360;52.992;6.796;2023-05-18T06:57:06;10.70;99.90
54126;DHT22;40360;52.992;6.796;2023-05-18T06:59:32;10.80;99.90
54126;DHT22;40360;52.992;6.796;2023-05-18T07:01:59;10.80;99.90
54126;DHT22;40360;52.992;6.796;2023-05-18T07:04:25;10.90;99.90
54126;DHT22;40360;52.992;6.796;2023-05-18T07:06:51;11.00;99.90
54126;DHT22;40360;52.992;6.796;2023-05-18T07:09:19;11.10;99.90
54126;DHT22;40360;52.992;6.796;2023-05-18T07:11:44;11.10;99.90
54126;DHT22;40360;52.992;6.796;2023-05-18T07:14:10;11.10;99.90
54126;DHT22;40360;52.992;6.796;2023-05-18T07:16:36;11.20;99.90
54126;DHT22;40360;52.992;6.796;2023-05-18T07:19:02;11.20;99.90
54126;DHT22;40360;52.992;6.796;2023-05-18T07:21:29;11.30;99.90
54126;DHT22;40360;52.992;6.796;2023-05-18T07:23:55;11.30;99.90
54126;DHT22;40360;52.992;6.796;2023-05-18T07:26:21;11.40;99.90
54126;DHT22;40360;52.992;6.796;2023-05-18T07:28:47;11.40;99.90
54126;DHT22;40360;52.992;6.796;2023-05-18T07:31:13;11.40;99.90
54126;DHT22;40360;52.992;6.796;2023-05-18T07:33:41;11.40;99.90
54126;DHT22;40360;52.992;6.796;2023-05-18T07:36:07;11.40;99.90
54126;DHT22;40360;52.992;6.796;2023-05-18T07:38:33;11.40;99.90
54126;DHT22;40360;52.992;6.796;2023-05-18T07:40:58;11.30;99.90
54126;DHT22;40360;52.992;6.796;2023-05-18T07:43:24;11.40;99.90
54126;DHT22;40360;52.992;6.796;2023-05-18T07:45:51;11.60;99.90
54126;DHT22;40360;52.992;6.796;2023-05-18T07:48:16;11.70;99.90
54126;DHT22;40360;52.992;6.796;2023-05-18T07:50:42;11.60;99.90
54126;DHT22;40360;52.992;6.796;2023-05-18T07:53:08;11.70;99.90
54126;DHT22;40360;52.992;6.796;2023-05-18T07:55:33;11.80;99.90
54126;DHT22;40360;52.992;6.796;2023-05-18T07:57:59;11.80;99.90
54126;DHT22;40360;52.992;6.796;2023-05-18T08:00:27;11.90;99.90
54126;DHT22;40360;52.992;6.796;2023-05-18T08:02:53;12.00;99.90
54126;DHT22;40360;52.992;6.796;2023-05-18T08:05:19;12.10;99.90
54126;DHT22;40360;52.992;6.796;2023-05-18T08:07:47;12.30;99.90
54126;DHT22;40360;52.992;6.796;2023-05-18T08:10:12;12.40;99.90
54126;DHT22;40360;52.992;6.796;2023-05-18T08:12:38;12.50;99.90
54126;DHT22;40360;52.992;6.796;2023-05-18T08:15:04;12.70;99.90
54126;DHT22;40360;52.992;6.796;2023-05-18T08:17:30;12.90;99.90
54126;DHT22;40360;52.992;6.796;2023-05-18T08:19:56;13.00;99.90
54126;DHT22;40360;52.992;6.796;2023-05-18T08:22:21;13.10;99.90
54126;DHT22;40360;52.992;6.796;2023-05-18T08:24:47;13.30;99.90
54126;DHT22;40360;52.992;6.796;2023-05-18T08:27:13;13.40;99.90
54126;DHT22;40360;52.992;6.796;2023-05-18T08:29:38;13.60;99.90
54126;DHT22;40360;52.992;6.796;2023-05-18T08:32:05;13.70;99.90
54126;DHT22;40360;52.992;6.796;2023-05-18T08:34:31;13.80;99.90
54126;DHT22;40360;52.992;6.796;2023-05-18T08:36:57;13.90;99.90
54126;DHT22;40360;52.992;6.796;2023-05-18T08:39:23;14.00;99.90
54126;DHT22;40360;52.992;6.796;2023-05-18T08:44:30;14.20;99.90
54126;DHT22;40360;52.992;6.796;2023-05-18T08:46:57;14.30;99.90
54126;DHT22;40360;52.992;6.796;2023-05-18T08:49:26;14.50;99.90
54126;DHT22;40360;52.992;6.796;2023-05-18T08:51:56;14.50;99.90
54126;DHT22;40360;52.992;6.796;2023-05-18T08:54:22;14.40;99.90
54126;DHT22;40360;52.992;6.796;2023-05-18T08:56:49;14.40;99.90
54126;DHT22;40360;52.992;6.796;2023-05-18T08:59:30;14.40;99.90
54126;DHT22;40360;52.992;6.796;2023-05-18T09:01:57;14.40;99.90
54126;DHT22;40360;52.992;6.796;2023-05-18T09:04:23;14.40;99.90
54126;DHT22;40360;52.992;6.796;2023-05-18T09:06:50;14.40;99.90
54126;DHT22;40360;52.992;6.796;2023-05-18T09:09:19;14.40;99.90
54126;DHT22;40360;52.992;6.796;2023-05-18T09:11:47;14.30;99.90
54126;DHT22;40360;52.992;6.796;2023-05-18T09:14:14;14.30;99.90
54126;DHT22;40360;52.992;6.796;2023-05-18T09:16:39;14.40;99.90
54126;DHT22;40360;52.992;6.796;2023-05-18T09:19:05;14.50;99.90
54126;DHT22;40360;52.992;6.796;2023-05-18T09:21:31;14.50;99.90
54126;DHT22;40360;52.992;6.796;2023-05-18T09:23:58;14.40;99.90
54126;DHT22;40360;52.992;6.796;2023-05-18T09:26:24;14.30;99.90
54126;DHT22;40360;52.992;6.796;2023-05-18T09:28:52;14.40;99.90
54126;DHT22;40360;52.992;6.796;2023-05-18T09:31:20;14.30;99.90
54126;DHT22;40360;52.992;6.796;2023-05-18T09:33:46;14.20;99.90
54126;DHT22;40360;52.992;6.796;2023-05-18T09:36:13;15.00;99.90
54126;DHT22;40360;52.992;6.796;2023-05-18T09:38:43;14.30;99.90
54126;DHT22;40360;52.992;6.796;2023-05-18T09:41:16;14.40;99.90
54126;DHT22;40360;52.992;6.796;2023-05-18T09:43:47;14.40;99.90
54126;DHT22;40360;52.992;6.796;2023-05-18T09:46:13;14.50;99.90
54126;DHT22;40360;52.992;6.796;2023-05-18T09:48:51;14.50;99.90
54126;DHT22;40360;52.992;6.796;2023-05-18T09:51:17;14.60;99.90
54126;DHT22;40360;52.992;6.796;2023-05-18T09:53:57;14.60;99.90
54126;DHT22;40360;52.992;6.796;2023-05-18T09:56:24;14.60;99.90
54126;DHT22;40360;52.992;6.796;2023-05-18T09:58:51;14.50;99.90
54126;DHT22;40360;52.992;6.796;2023-05-18T10:01:17;14.50;99.90
54126;DHT22;40360;52.992;6.796;2023-05-18T10:03:43;14.50;99.90
54126;DHT22;40360;52.992;6.796;2023-05-18T10:06:12;14.50;99.90
54126;DHT22;40360;52.992;6.796;2023-05-18T10:08:40;14.60;99.90
54126;DHT22;40360;52.992;6.796;2023-05-18T10:11:06;14.70;99.90
54126;DHT22;40360;52.992;6.796;2023-05-18T10:13:32;14.80;99.90
54126;DHT22;40360;52.992;6.796;2023-05-18T10:16:00;15.10;99.90
54126;DHT22;40360;52.992;6.796;2023-05-18T10:18:28;15.10;99.90
54126;DHT22;40360;52.992;6.796;2023-05-18T10:20:56;15.30;99.90
54126;DHT22;40360;52.992;6.796;2023-05-18T10:23:23;15.70;99.90
54126;DHT22;40360;52.992;6.796;2023-05-18T10:25:50;16.10;99.90
54126;DHT22;40360;52.992;6.796;2023-05-18T10:28:34;16.50;99.90
54126;DHT22;40360;52.992;6.796;2023-05-18T10:31:03;16.80;99.90
54126;DHT22;40360;52.992;6.796;2023-05-18T10:33:30;17.20;99.90
54126;DHT22;40360;52.992;6.796;2023-05-18T10:35:56;17.60;99.90
54126;DHT22;40360;52.992;6.796;2023-05-18T10:38:24;17.90;99.90
54126;DHT22;40360;52.992;6.796;2023-05-18T10:40:53;18.10;99.90
54126;DHT22;40360;52.992;6.796;2023-05-18T10:43:21;18.20;99.60
54126;DHT22;40360;52.992;6.796;2023-05-18T10:45:56;18.20;99.40
54126;DHT22;40360;52.992;6.796;2023-05-18T10:48:22;18.30;98.80
54126;DHT22;40360;52.992;6.796;2023-05-18T10:50:50;18.30;99.00
54126;DHT22;40360;52.992;6.796;2023-05-18T10:53:24;18.40;98.10
54126;DHT22;40360;52.992;6.796;2023-05-18T10:55:52;18.40;98.00
54126;DHT22;40360;52.992;6.796;2023-05-18T10:58:20;18.40;97.60
54126;DHT22;40360;52.992;6.796;2023-05-18T11:00:51;18.40;97.30
54126;DHT22;40360;52.992;6.796;2023-05-18T11:03:18;18.20;97.60
54126;DHT22;40360;52.992;6.796;2023-05-18T11:05:49;18.30;97.70
54126;DHT22;40360;52.992;6.796;2023-05-18T11:08:24;18.40;98.00
54126;DHT22;40360;52.992;6.796;2023-05-18T11:11:02;18.40;97.10
54126;DHT22;40360;52.992;6.796;2023-05-18T11:13:29;18.30;97.60
54126;DHT22;40360;52.992;6.796;2023-05-18T11:18:39;18.70;98.60
54126;DHT22;40360;52.992;6.796;2023-05-18T11:24:20;18.80;97.30
54126;DHT22;40360;52.992;6.796;2023-05-18T11:26:49;18.90;96.80
54126;DHT22;40360;52.992;6.796;2023-05-18T11:29:42;18.80;96.30
54126;DHT22;40360;52.992;6.796;2023-05-18T11:34:52;18.70;96.80
54126;DHT22;40360;52.992;6.796;2023-05-18T11:40:12;18.80;95.70
54126;DHT22;40360;52.992;6.796;2023-05-18T11:42:57;18.70;95.80
54126;DHT22;40360;52.992;6.796;2023-05-18T11:45:24;18.60;96.10
54126;DHT22;40360;52.992;6.796;2023-05-18T11:47:55;18.70;96.70
54126;DHT22;40360;52.992;6.796;2023-05-18T11:50:21;18.70;96.10
54126;DHT22;40360;52.992;6.796;2023-05-18T11:52:49;18.90;96.30
54126;DHT22;40360;52.992;6.796;2023-05-18T11:55:18;19.10;96.60
54126;DHT22;40360;52.992;6.796;2023-05-18T11:57:48;19.20;96.80
54126;DHT22;40360;52.992;6.796;2023-05-18T12:00:14;19.30;95.70
54126;DHT22;40360;52.992;6.796;2023-05-18T12:02:43;19.40;96.20
54126;DHT22;40360;52.992;6.796;2023-05-18T12:05:09;19.50;95.40
54126;DHT22;40360;52.992;6.796;2023-05-18T12:07:35;19.50;95.40
54126;DHT22;40360;52.992;6.796;2023-05-18T12:10:12;19.50;95.50
54126;DHT22;40360;52.992;6.796;2023-05-18T12:12:42;19.50;95.70
54126;DHT22;40360;52.992;6.796;2023-05-18T12:15:09;19.60;94.80
54126;DHT22;40360;52.992;6.796;2023-05-18T12:17:46;19.50;94.40
54126;DHT22;40360;52.992;6.796;2023-05-18T12:20:13;19.40;93.70
54126;DHT22;40360;52.992;6.796;2023-05-18T12:22:41;19.30;93.70
54126;DHT22;40360;52.992;6.796;2023-05-18T12:25:07;19.30;93.90
54126;DHT22;40360;52.992;6.796;2023-05-18T12:27:43;19.30;94.90
54126;DHT22;40360;52.992;6.796;2023-05-18T12:30:09;19.40;94.90
54126;DHT22;40360;52.992;6.796;2023-05-18T12:32:42;19.50;94.60
54126;DHT22;40360;52.992;6.796;2023-05-18T12:35:08;19.60;94.60
54126;DHT22;40360;52.992;6.796;2023-05-18T12:37:43;19.70;94.50
54126;DHT22;40360;52.992;6.796;2023-05-18T12:40:13;19.80;94.60
54126;DHT22;40360;52.992;6.796;2023-05-18T12:42:39;19.90;94.90
54126;DHT22;40360;52.992;6.796;2023-05-18T12:45:05;19.90;94.40
54126;DHT22;40360;52.992;6.796;2023-05-18T12:47:32;20.10;94.30
54126;DHT22;40360;52.992;6.796;2023-05-18T12:50:01;20.00;93.60
54126;DHT22;40360;52.992;6.796;2023-05-18T12:52:27;19.90;93.70
54126;DHT22;40360;52.992;6.796;2023-05-18T12:54:56;19.80;93.60
54126;DHT22;40360;52.992;6.796;2023-05-18T12:57:28;19.80;93.50
54126;DHT22;40360;52.992;6.796;2023-05-18T12:59:59;19.70;93.90
54126;DHT22;40360;52.992;6.796;2023-05-18T13:05:10;19.70;94.00
54126;DHT22;40360;52.992;6.796;2023-05-18T13:10:10;19.60;93.60
54126;DHT22;40360;52.992;6.796;2023-05-18T13:12:47;19.50;94.50
54126;DHT22;40360;52.992;6.796;2023-05-18T13:15:22;19.60;95.10
54126;DHT22;40360;52.992;6.796;2023-05-18T13:18:01;19.70;94.20
54126;DHT22;40360;52.992;6.796;2023-05-18T13:20:40;19.80;94.90
54126;DHT22;40360;52.992;6.796;2023-05-18T13:23:14;19.80;94.70
54126;DHT22;40360;52.992;6.796;2023-05-18T13:25:41;19.70;94.10
54126;DHT22;40360;52.992;6.796;2023-05-18T13:28:08;19.60;93.90
54126;DHT22;40360;52.992;6.796;2023-05-18T13:30:35;19.40;94.00
54126;DHT22;40360;52.992;6.796;2023-05-18T13:33:01;19.40;94.00
54126;DHT22;40360;52.992;6.796;2023-05-18T13:35:27;19.40;95.40
54126;DHT22;40360;52.992;6.796;2023-05-18T13:37:52;19.60;95.20
54126;DHT22;40360;52.992;6.796;2023-05-18T13:40:19;19.40;94.70
54126;DHT22;40360;52.992;6.796;2023-05-18T13:42:46;19.40;94.80
54126;DHT22;40360;52.992;6.796;2023-05-18T13:45:12;19.40;94.80
54126;DHT22;40360;52.992;6.796;2023-05-18T13:47:39;19.40;94.80
54126;DHT22;40360;52.992;6.796;2023-05-18T13:50:06;19.40;95.30
54126;DHT22;40360;52.992;6.796;2023-05-18T13:52:32;19.50;95.00
54126;DHT22;40360;52.992;6.796;2023-05-18T13:54:57;19.70;94.90
54126;DHT22;40360;52.992;6.796;2023-05-18T13:57:23;19.80;94.60
54126;DHT22;40360;52.992;6.796;2023-05-18T13:59:51;19.90;94.90
54126;DHT22;40360;52.992;6.796;2023-05-18T14:02:18;20.00;95.00
54126;DHT22;40360;52.992;6.796;2023-05-18T14:04:44;20.10;94.70
54126;DHT22;40360;52.992;6.796;2023-05-18T14:07:10;20.20;94.60
54126;DHT22;40360;52.992;6.796;2023-05-18T14:09:36;20.30;94.90
54126;DHT22;40360;52.992;6.796;2023-05-18T14:12:02;20.30;94.90
54126;DHT22;40360;52.992;6.796;2023-05-18T14:14:29;20.00;94.90
54126;DHT22;40360;52.992;6.796;2023-05-18T14:16:55;19.80;95.10
54126;DHT22;40360;52.992;6.796;2023-05-18T14:19:21;19.90;95.80
54126;DHT22;40360;52.992;6.796;2023-05-18T14:21:46;20.00;95.10
54126;DHT22;40360;52.992;6.796;2023-05-18T14:24:12;19.90;95.10
54126;DHT22;40360;52.992;6.796;2023-05-18T14:26:40;19.70;94.70
54126;DHT22;40360;52.992;6.796;2023-05-18T14:29:05;19.70;95.50
54126;DHT22;40360;52.992;6.796;2023-05-18T14:31:31;19.60;95.90
54126;DHT22;40360;52.992;6.796;2023-05-18T14:33:57;19.10;96.30
54126;DHT22;40360;52.992;6.796;2023-05-18T14:36:23;19.00;96.80
54126;DHT22;40360;52.992;6.796;2023-05-18T14:38:49;19.00;96.60
54126;DHT22;40360;52.992;6.796;2023-05-18T14:41:14;18.90;96.70
54126;DHT22;40360;52.992;6.796;2023-05-18T14:43:40;18.80;96.70
54126;DHT22;40360;52.992;6.796;2023-05-18T14:46:06;18.90;96.70
54126;DHT22;40360;52.992;6.796;2023-05-18T14:48:32;19.10;97.10
54126;DHT22;40360;52.992;6.796;2023-05-18T14:50:57;19.30;97.10
54126;DHT22;40360;52.992;6.796;2023-05-18T14:53:23;18.90;97.20
54126;DHT22;40360;52.992;6.796;2023-05-18T14:55:49;18.60;98.00
54126;DHT22;40360;52.992;6.796;2023-05-18T14:58:14;18.60;98.80
54126;DHT22;40360;52.992;6.796;2023-05-18T15:00:41;18.50;98.20
54126;DHT22;40360;52.992;6.796;2023-05-18T15:03:07;18.30;98.40
54126;DHT22;40360;52.992;6.796;2023-05-18T15:05:33;17.80;98.50
54126;DHT22;40360;52.992;6.796;2023-05-18T15:07:59;17.40;99.40
54126;DHT22;40360;52.992;6.796;2023-05-18T15:10:25;17.30;99.90
54126;DHT22;40360;52.992;6.796;2023-05-18T15:12:51;17.10;99.90
54126;DHT22;40360;52.992;6.796;2023-05-18T15:15:17;17.10;99.90
54126;DHT22;40360;52.992;6.796;2023-05-18T15:17:42;17.40;99.90
54126;DHT22;40360;52.992;6.796;2023-05-18T15:20:09;17.10;99.90
54126;DHT22;40360;52.992;6.796;2023-05-18T15:22:35;17.10;99.90
54126;DHT22;40360;52.992;6.796;2023-05-18T15:25:06;17.00;99.90
54126;DHT22;40360;52.992;6.796;2023-05-18T15:27:35;16.70;99.90
54126;DHT22;40360;52.992;6.796;2023-05-18T15:30:01;16.80;99.90
54126;DHT22;40360;52.992;6.796;2023-05-18T15:32:27;16.70;99.90
54126;DHT22;40360;52.992;6.796;2023-05-18T15:34:53;16.60;99.90
54126;DHT22;40360;52.992;6.796;2023-05-18T15:37:19;16.70;99.90
54126;DHT22;40360;52.992;6.796;2023-05-18T15:39:44;16.80;99.90
54126;DHT22;40360;52.992;6.796;2023-05-18T15:42:10;16.80;99.90
54126;DHT22;40360;52.992;6.796;2023-05-18T15:44:36;16.80;99.90
54126;DHT22;40360;52.992;6.796;2023-05-18T15:47:03;16.80;99.90
54126;DHT22;40360;52.992;6.796;2023-05-18T15:49:29;16.80;99.90
54126;DHT22;40360;52.992;6.796;2023-05-18T15:51:54;16.80;99.90
54126;DHT22;40360;52.992;6.796;2023-05-18T15:54:20;16.90;99.90
54126;DHT22;40360;52.992;6.796;2023-05-18T15:56:46;16.90;99.90
54126;DHT22;40360;52.992;6.796;2023-05-18T15:59:12;16.80;99.90
54126;DHT22;40360;52.992;6.796;2023-05-18T16:01:37;16.80;99.90
54126;DHT22;40360;52.992;6.796;2023-05-18T16:04:03;16.80;99.90
54126;DHT22;40360;52.992;6.796;2023-05-18T16:06:29;16.60;99.90
54126;DHT22;40360;52.992;6.796;2023-05-18T16:08:54;16.50;99.90
54126;DHT22;40360;52.992;6.796;2023-05-18T16:11:20;16.30;99.90
54126;DHT22;40360;52.992;6.796;2023-05-18T16:13:46;16.10;99.90
54126;DHT22;40360;52.992;6.796;2023-05-18T16:16:15;15.90;99.90
54126;DHT22;40360;52.992;6.796;2023-05-18T16:18:40;15.70;99.90
54126;DHT22;40360;52.992;6.796;2023-05-18T16:21:06;15.60;99.90
54126;DHT22;40360;52.992;6.796;2023-05-18T16:23:32;15.30;99.90
54126;DHT22;40360;52.992;6.796;2023-05-18T16:25:57;15.30;99.90